createdAt,value
2019-01-16T00:01:47.055Z,18.83
2019-01-16T00:04:27.052Z,17.23
2019-01-16T00:07:15.782Z,19.93
2019-01-16T00:10:07.370Z,18.63
2019-01-16T00:12:52.888Z,18.67
2019-01-16T00:15:46.585Z,18.43
2019-01-16T00:18:38.031Z,17.37
2019-01-16T00:21:29.617Z,18.13
2019-01-16T00:24:23.925Z,19.80
2019-01-16T00:27:18.433Z,19.27
2019-01-16T00:30:10.964Z,18.90
2019-01-16T00:32:49.560Z,20.90
2019-01-16T00:35:40.875Z,18.90
2019-01-16T00:38:28.047Z,18.30
2019-01-16T00:41:28.760Z,18.00
2019-01-16T00:44:16.161Z,19.63
2019-01-16T00:47:08.191Z,19.17
2019-01-16T00:50:05.899Z,17.40
2019-01-16T00:52:44.805Z,22.27
2019-01-16T00:55:33.257Z,18.53
2019-01-16T00:58:20.795Z,18.13
2019-01-16T01:01:16.168Z,16.93
2019-01-16T01:04:07.722Z,20.63
2019-01-16T01:07:03.125Z,19.93
2019-01-16T01:09:52.789Z,20.80
2019-01-16T01:12:39.845Z,20.43
2019-01-16T01:15:27.775Z,23.03
2019-01-16T01:18:32.433Z,19.50
2019-01-16T01:21:24.712Z,20.50
2019-01-16T01:24:13.173Z,18.97
2019-01-16T01:27:01.636Z,20.57
2019-01-16T01:29:49.168Z,19.03
2019-01-16T01:32:42.033Z,20.93
2019-01-16T01:35:25.072Z,19.33
2019-01-16T01:38:21.219Z,21.67
2019-01-16T01:41:09.608Z,20.13
2019-01-16T01:43:58.059Z,21.63
2019-01-16T01:46:46.524Z,23.60
2019-01-16T01:49:44.014Z,22.10
2019-01-16T01:52:31.096Z,23.63
2019-01-16T01:55:19.364Z,22.97
2019-01-16T01:57:57.969Z,22.37
2019-01-16T02:00:45.857Z,26.77
2019-01-16T02:03:33.648Z,24.83
2019-01-16T02:06:20.986Z,24.63
2019-01-16T02:09:12.673Z,24.27
2019-01-16T02:12:07.438Z,24.37
2019-01-16T02:14:49.786Z,26.90
2019-01-16T02:17:56.428Z,23.80
2019-01-16T02:20:36.103Z,24.60
2019-01-16T02:23:36.879Z,24.30
2019-01-16T02:26:28.273Z,24.37
2019-01-16T02:29:34.905Z,24.20
2019-01-16T02:32:22.361Z,26.50
2019-01-16T02:35:29.522Z,25.10
2019-01-16T02:38:06.828Z,25.13
2019-01-16T02:40:48.873Z,26.80
2019-01-16T02:43:43.695Z,24.50
2019-01-16T02:46:30.863Z,24.20
2019-01-16T02:49:19.272Z,23.63
2019-01-16T02:52:13.953Z,25.53
2019-01-16T02:55:11.971Z,24.57
2019-01-16T02:57:52.568Z,22.87
2019-01-16T03:00:47.225Z,23.47
2019-01-16T03:03:44.929Z,23.33
2019-01-16T03:06:33.374Z,25.10
2019-01-16T03:09:20.517Z,23.93
2019-01-16T03:12:05.348Z,21.73
2019-01-16T03:14:44.536Z,22.23
2019-01-16T03:17:41.940Z,21.83
2019-01-16T03:20:32.249Z,23.70
2019-01-16T03:23:23.604Z,22.60
2019-01-16T03:26:03.162Z,24.00
2019-01-16T03:28:51.588Z,24.10
2019-01-16T03:31:34.905Z,22.27
2019-01-16T03:34:22.032Z,23.20
2019-01-16T03:37:22.523Z,23.80
2019-01-16T03:40:09.641Z,20.57
2019-01-16T03:42:57.059Z,23.70
2019-01-16T03:45:43.668Z,23.73
2019-01-16T03:48:32.336Z,24.90
2019-01-16T03:51:24.021Z,23.60
2019-01-16T03:54:10.390Z,24.73
2019-01-16T03:57:05.078Z,26.93
2019-01-16T04:00:11.762Z,24.03
2019-01-16T04:03:12.188Z,26.33
2019-01-16T04:05:59.796Z,24.80
2019-01-16T04:08:51.270Z,24.93
2019-01-16T04:11:32.361Z,24.30
2019-01-16T04:14:35.912Z,23.00
2019-01-16T04:17:24.980Z,22.50
2019-01-16T04:20:28.534Z,24.50
2019-01-16T04:23:20.151Z,26.30
2019-01-16T04:26:08.587Z,23.10
2019-01-16T04:29:00.202Z,24.03
2019-01-16T04:31:51.821Z,20.63
2019-01-16T04:34:40.268Z,26.20
2019-01-16T04:37:43.969Z,21.40
2019-01-16T04:40:35.209Z,23.03
2019-01-16T04:43:29.499Z,22.80
2019-01-16T04:46:20.755Z,26.00
2019-01-16T04:49:29.991Z,22.93
2019-01-16T04:52:15.071Z,22.80
2019-01-16T04:55:03.373Z,24.20
2019-01-16T04:57:57.841Z,26.00
2019-01-16T05:00:46.297Z,24.00
2019-01-16T05:03:43.809Z,21.47
2019-01-16T05:06:30.880Z,25.57
2019-01-16T05:09:19.348Z,21.47
2019-01-16T05:12:15.492Z,22.93
2019-01-16T05:14:57.182Z,21.83
2019-01-16T05:17:44.239Z,20.67
2019-01-16T05:20:32.718Z,21.30
2019-01-16T05:23:23.934Z,19.07
2019-01-16T05:26:13.329Z,22.67
2019-01-16T05:29:00.502Z,21.77
2019-01-16T05:31:47.618Z,25.33
2019-01-16T05:34:35.134Z,23.27
2019-01-16T05:37:29.786Z,22.87
2019-01-16T05:40:10.544Z,22.97
2019-01-16T05:43:14.365Z,22.50
2019-01-16T05:46:03.718Z,27.13
2019-01-16T05:48:58.470Z,24.90
2019-01-16T05:51:52.922Z,30.87
2019-01-16T05:54:44.592Z,27.83
2019-01-16T05:57:42.575Z,28.37
2019-01-16T06:00:41.813Z,31.40
2019-01-16T06:03:30.272Z,30.77
2019-01-16T06:06:10.811Z,29.77
2019-01-16T06:09:17.662Z,27.42
2019-01-16T06:12:09.169Z,27.30
2019-01-16T06:14:52.468Z,31.80
2019-01-16T06:17:46.665Z,30.37
2019-01-16T06:20:47.572Z,29.73
2019-01-16T06:23:36.022Z,30.13
2019-01-16T06:26:42.770Z,29.43
2019-01-16T06:29:33.127Z,27.27
2019-01-16T06:32:20.559Z,31.90
2019-01-16T06:35:11.913Z,36.13
2019-01-16T06:38:09.498Z,28.20
2019-01-16T06:40:56.936Z,32.57
2019-01-16T06:43:48.397Z,28.70
2019-01-16T06:46:44.548Z,28.70
2019-01-16T06:49:39.014Z,28.87
2019-01-16T06:52:18.676Z,31.70
2019-01-16T06:55:03.756Z,29.90
2019-01-16T06:57:40.465Z,29.63
2019-01-16T07:00:38.197Z,28.40
2019-01-16T07:03:26.625Z,30.60
2019-01-16T07:06:21.853Z,30.40
2019-01-16T07:09:14.927Z,29.97
2019-01-16T07:12:02.237Z,30.50
2019-01-16T07:14:49.433Z,31.40
2019-01-16T07:17:44.262Z,32.97
2019-01-16T07:20:41.953Z,26.83
2019-01-16T07:23:36.349Z,26.70
2019-01-16T07:26:40.907Z,26.27
2019-01-16T07:29:37.210Z,26.73
2019-01-16T07:32:24.433Z,25.67
2019-01-16T07:35:18.985Z,25.37
2019-01-16T07:37:57.514Z,27.60
2019-01-16T07:40:55.157Z,27.33
2019-01-16T07:43:43.875Z,27.13
2019-01-16T07:46:41.927Z,23.37
2019-01-16T07:49:45.447Z,23.67
2019-01-16T07:52:40.146Z,21.77
2019-01-16T07:55:31.812Z,24.37
2019-01-16T07:58:09.856Z,22.77
2019-01-16T08:00:57.318Z,18.43
2019-01-16T08:03:48.781Z,23.77
2019-01-16T08:06:36.031Z,18.27
2019-01-16T08:09:26.599Z,16.87
2019-01-16T08:12:27.316Z,18.40
2019-01-16T08:15:22.109Z,19.10
2019-01-16T08:18:00.088Z,19.00
2019-01-16T08:20:47.288Z,21.40
2019-01-16T08:23:34.828Z,21.30
2019-01-16T08:26:32.611Z,19.23
2019-01-16T08:29:15.329Z,15.97
2019-01-16T08:32:19.259Z,15.53
2019-01-16T08:35:10.468Z,16.17
2019-01-16T08:38:08.090Z,14.50
2019-01-16T08:40:50.203Z,15.83
2019-01-16T08:43:54.152Z,14.00
2019-01-16T08:46:33.156Z,15.97
2019-01-16T08:49:20.364Z,15.03
2019-01-16T08:52:14.970Z,12.53
2019-01-16T08:55:04.092Z,11.70
2019-01-16T08:58:01.936Z,16.20
2019-01-16T09:00:49.232Z,12.50
2019-01-16T09:03:37.025Z,15.23
2019-01-16T09:06:24.614Z,14.50
2019-01-16T09:09:11.700Z,14.00
2019-01-16T09:12:00.278Z,11.10
2019-01-16T09:14:47.558Z,14.33
2019-01-16T09:17:54.456Z,13.67
2019-01-16T09:20:45.677Z,17.93
2019-01-16T09:23:52.532Z,12.90
2019-01-16T09:26:42.486Z,19.33
2019-01-16T09:29:28.248Z,11.40
2019-01-16T09:32:15.255Z,11.43
2019-01-16T09:34:50.120Z,11.53
2019-01-16T09:37:38.549Z,8.83
2019-01-16T09:40:29.306Z,9.43
2019-01-16T09:43:17.184Z,10.83
2019-01-16T09:46:15.273Z,7.80
2019-01-16T09:49:03.717Z,11.13
2019-01-16T09:51:52.702Z,9.00
2019-01-16T09:54:39.900Z,11.47
2019-01-16T09:57:28.374Z,10.67
2019-01-16T10:00:15.633Z,9.33
2019-01-16T10:03:13.477Z,8.43
2019-01-16T10:06:02.018Z,7.20
2019-01-16T10:08:59.345Z,8.00
2019-01-16T10:12:00.532Z,6.73
2019-01-16T10:14:54.930Z,6.67
2019-01-16T10:17:49.163Z,7.50
2019-01-16T10:20:37.650Z,7.20
2019-01-16T10:23:24.698Z,6.90
2019-01-16T10:26:19.165Z,6.00
2019-01-16T10:29:06.410Z,6.37
2019-01-16T10:31:48.657Z,9.57
2019-01-16T10:34:52.456Z,10.97
2019-01-16T10:37:43.762Z,6.90
2019-01-16T10:40:30.905Z,8.27
2019-01-16T10:43:48.068Z,6.80
2019-01-16T10:46:48.957Z,7.30
2019-01-16T10:49:37.425Z,6.40
2019-01-16T10:52:31.012Z,7.40
2019-01-16T10:55:22.248Z,7.03
2019-01-16T10:58:20.559Z,6.70
2019-01-16T11:01:07.930Z,7.23
2019-01-16T11:04:14.871Z,7.60
2019-01-16T11:07:15.318Z,7.80
2019-01-16T11:10:15.652Z,8.40
2019-01-16T11:13:16.110Z,7.00
2019-01-16T11:16:03.440Z,8.90
2019-01-16T11:18:50.901Z,11.67
2019-01-16T11:21:39.362Z,10.80
2019-01-16T11:24:30.553Z,8.60
2019-01-16T11:27:17.857Z,11.83
2019-01-16T11:30:05.160Z,8.37
2019-01-16T11:33:03.024Z,9.57
2019-01-16T11:35:50.107Z,8.30
2019-01-16T11:38:37.210Z,10.50
2019-01-16T11:41:43.808Z,10.87
2019-01-16T11:44:32.271Z,11.20
2019-01-16T11:47:26.308Z,10.37
2019-01-16T11:50:24.009Z,10.43
2019-01-16T11:53:15.403Z,13.67
2019-01-16T11:55:54.293Z,13.67
2019-01-16T11:58:48.724Z,12.50
2019-01-16T12:01:35.004Z,14.23
2019-01-16T12:04:23.600Z,17.07
2019-01-16T12:07:07.584Z,12.37
2019-01-16T12:09:51.982Z,14.30
2019-01-16T12:12:52.618Z,16.17
2019-01-16T12:15:41.099Z,14.00
2019-01-16T12:18:29.863Z,14.60
2019-01-16T12:21:36.785Z,12.33
2019-01-16T12:24:25.552Z,14.53
2019-01-16T12:27:13.977Z,17.80
2019-01-16T12:30:05.481Z,15.37
2019-01-16T12:32:44.208Z,13.50
2019-01-16T12:35:34.837Z,16.23
2019-01-16T12:38:22.271Z,16.23
2019-01-16T12:41:09.383Z,15.47
2019-01-16T12:43:56.614Z,14.90
2019-01-16T12:47:00.212Z,16.43
2019-01-16T12:49:54.508Z,17.37
2019-01-16T12:52:55.040Z,14.67
2019-01-16T12:55:59.239Z,18.27
2019-01-16T12:58:47.736Z,17.03
2019-01-16T13:01:48.522Z,13.27
2019-01-16T13:04:28.454Z,14.60
2019-01-16T13:07:11.271Z,12.70
2019-01-16T13:09:57.094Z,13.93
2019-01-16T13:12:45.586Z,15.67
2019-01-16T13:15:33.193Z,15.23
2019-01-16T13:18:37.088Z,14.30
2019-01-16T13:21:40.046Z,12.60
2019-01-16T13:24:34.469Z,15.03
2019-01-16T13:27:22.211Z,14.00
2019-01-16T13:30:09.670Z,11.53
2019-01-16T13:32:51.814Z,12.70
2019-01-16T13:35:49.141Z,13.20
2019-01-16T13:38:26.221Z,17.23
2019-01-16T13:41:13.932Z,15.50
2019-01-16T13:44:17.558Z,12.40
2019-01-16T13:47:06.092Z,11.53
2019-01-16T13:49:44.244Z,14.53
2019-01-16T13:52:35.494Z,14.00
2019-01-16T13:55:27.361Z,12.27
2019-01-16T13:58:30.815Z,12.13
2019-01-16T14:01:25.903Z,17.17
2019-01-16T14:04:15.549Z,12.03
2019-01-16T14:06:56.000Z,16.07
2019-01-16T14:09:53.591Z,10.10
2019-01-16T14:12:41.309Z,11.20
2019-01-16T14:15:29.979Z,9.20
2019-01-16T14:18:06.949Z,10.83
2019-01-16T14:20:49.465Z,9.57
2019-01-16T14:23:40.907Z,9.97
2019-01-16T14:26:29.640Z,12.57
2019-01-16T14:29:22.694Z,9.90
2019-01-16T14:32:29.550Z,8.33
2019-01-16T14:35:21.069Z,10.17
2019-01-16T14:38:13.004Z,11.40
2019-01-16T14:41:04.281Z,12.33
2019-01-16T14:43:58.863Z,10.00
2019-01-16T14:46:46.068Z,9.67
2019-01-16T14:49:43.804Z,9.30
2019-01-16T14:52:47.921Z,8.83
2019-01-16T14:55:39.038Z,10.80
2019-01-16T14:58:33.399Z,9.00
2019-01-16T15:01:22.397Z,10.17
2019-01-16T15:04:09.698Z,7.17
2019-01-16T15:06:58.168Z,11.87
2019-01-16T15:09:53.957Z,9.97
2019-01-16T15:12:41.189Z,7.33
2019-01-16T15:15:32.872Z,11.90
2019-01-16T15:18:37.171Z,9.83
2019-01-16T15:21:25.077Z,11.60
2019-01-16T15:24:08.589Z,11.10
2019-01-16T15:27:15.335Z,13.50
2019-01-16T15:30:12.951Z,12.33
2019-01-16T15:33:00.344Z,12.50
2019-01-16T15:36:00.861Z,10.87
2019-01-16T15:38:48.027Z,12.37
2019-01-16T15:41:39.760Z,11.40
2019-01-16T15:44:31.498Z,14.67
2019-01-16T15:47:18.979Z,11.70
2019-01-16T15:50:06.279Z,15.70
2019-01-16T15:52:53.317Z,17.33
2019-01-16T15:55:50.909Z,16.50
2019-01-16T15:58:33.277Z,15.93
2019-01-16T16:01:32.159Z,11.17
2019-01-16T16:04:32.599Z,11.73
2019-01-16T16:07:33.208Z,15.10
2019-01-16T16:10:20.460Z,13.50
2019-01-16T16:13:10.685Z,13.07
2019-01-16T16:15:56.067Z,19.23
2019-01-16T16:18:59.682Z,15.13
2019-01-16T16:21:46.867Z,9.50
2019-01-16T16:24:47.460Z,19.23
2019-01-16T16:27:29.819Z,12.27
2019-01-16T16:30:18.463Z,13.40
2019-01-16T16:33:10.030Z,15.50
2019-01-16T16:35:58.470Z,13.87
2019-01-16T16:38:39.279Z,14.33
2019-01-16T16:41:26.471Z,15.07
2019-01-16T16:44:21.313Z,19.43
2019-01-16T16:47:08.634Z,14.63
2019-01-16T16:50:03.629Z,14.10
2019-01-16T16:52:55.132Z,15.90
2019-01-16T16:55:42.472Z,13.97
2019-01-16T16:58:30.920Z,11.77
2019-01-16T17:01:19.272Z,12.10
2019-01-16T17:04:09.553Z,11.90
2019-01-16T17:07:07.748Z,12.07
2019-01-16T17:09:53.259Z,8.90
2019-01-16T17:12:50.874Z,13.67
2019-01-16T17:15:38.388Z,12.03
2019-01-16T17:18:26.965Z,12.00
2019-01-16T17:21:31.780Z,13.10
2019-01-16T17:24:26.188Z,11.50
2019-01-16T17:27:14.109Z,13.17
2019-01-16T17:30:11.621Z,15.53
2019-01-16T17:32:51.800Z,10.90
2019-01-16T17:35:52.619Z,10.70
2019-01-16T17:38:38.648Z,20.17
2019-01-16T17:41:25.388Z,13.13
2019-01-16T17:44:12.722Z,13.60
2019-01-16T17:47:07.320Z,10.23
2019-01-16T17:50:11.087Z,14.67
2019-01-16T17:53:02.324Z,19.60
2019-01-16T17:55:56.289Z,11.80
2019-01-16T17:58:43.908Z,10.43
2019-01-16T18:01:31.176Z,14.33
2019-01-16T18:04:19.750Z,15.43
2019-01-16T18:07:02.429Z,14.27
2019-01-16T18:09:53.633Z,11.83
2019-01-16T18:12:40.731Z,11.83
2019-01-16T18:15:28.881Z,12.73
2019-01-16T18:18:20.423Z,13.70
2019-01-16T18:21:07.701Z,13.93
2019-01-16T18:23:57.021Z,13.50
2019-01-16T18:26:53.694Z,13.70
2019-01-16T18:29:33.377Z,7.30
2019-01-16T18:32:29.156Z,11.20
2019-01-16T18:35:20.400Z,10.23
2019-01-16T18:38:08.233Z,11.90
2019-01-16T18:40:56.350Z,11.93
2019-01-16T18:43:56.864Z,15.53
2019-01-16T18:46:43.116Z,11.87
2019-01-16T18:49:30.314Z,13.43
2019-01-16T18:52:15.188Z,15.63
2019-01-16T18:55:03.603Z,13.80
2019-01-16T18:57:55.200Z,15.20
2019-01-16T19:00:46.669Z,12.37
2019-01-16T19:03:41.447Z,12.70
2019-01-16T19:06:39.807Z,14.53
2019-01-16T19:09:25.251Z,12.37
2019-01-16T19:12:14.895Z,11.33
2019-01-16T19:15:01.292Z,9.73
2019-01-16T19:17:39.733Z,10.70
2019-01-16T19:20:41.014Z,12.30
2019-01-16T19:23:35.994Z,11.73
2019-01-16T19:26:24.801Z,15.83
2019-01-16T19:29:22.204Z,16.30
2019-01-16T19:32:19.428Z,17.40
2019-01-16T19:35:26.101Z,12.73
2019-01-16T19:38:20.552Z,16.33
2019-01-16T19:41:11.664Z,13.27
2019-01-16T19:43:58.885Z,15.90
2019-01-16T19:46:56.698Z,15.77
2019-01-16T19:49:44.326Z,12.20
2019-01-16T19:52:31.585Z,16.07
2019-01-16T19:55:25.950Z,14.80
2019-01-16T19:58:32.510Z,16.30
2019-01-16T20:01:32.868Z,17.50
2019-01-16T20:04:21.890Z,16.93
2019-01-16T20:07:13.685Z,11.87
2019-01-16T20:10:01.120Z,13.50
2019-01-16T20:12:38.803Z,11.67
2019-01-16T20:15:17.093Z,13.47
2019-01-16T20:18:04.891Z,13.73
2019-01-16T20:21:08.576Z,12.30
2019-01-16T20:23:51.396Z,11.53
2019-01-16T20:26:36.100Z,14.50
2019-01-16T20:29:23.461Z,12.20
2019-01-16T20:32:15.224Z,14.50
2019-01-16T20:34:52.706Z,14.90
2019-01-16T20:37:36.060Z,17.80
2019-01-16T20:40:32.491Z,14.87
2019-01-16T20:43:23.809Z,13.57
2019-01-16T20:46:03.803Z,20.40
2019-01-16T20:48:45.588Z,17.63
2019-01-16T20:51:43.169Z,18.97
2019-01-16T20:54:43.064Z,16.03
2019-01-16T20:57:29.538Z,14.63
2019-01-16T21:00:22.084Z,16.60
2019-01-16T21:03:09.312Z,15.10
2019-01-16T21:06:13.108Z,16.23
2019-01-16T21:09:04.885Z,12.20
2019-01-16T21:11:52.952Z,16.70
2019-01-16T21:14:36.529Z,14.13
2019-01-16T21:17:19.653Z,15.30
2019-01-16T21:20:00.285Z,19.83
2019-01-16T21:22:45.900Z,16.77
2019-01-16T21:25:31.833Z,16.43
2019-01-16T21:28:23.140Z,18.40
2019-01-16T21:31:09.468Z,15.93
2019-01-16T21:33:54.347Z,15.63
2019-01-16T21:37:01.252Z,22.67
2019-01-16T21:39:42.102Z,16.93
2019-01-16T21:42:40.106Z,15.87
2019-01-16T21:45:48.149Z,18.00
2019-01-16T21:48:47.797Z,17.20
2019-01-16T21:51:45.277Z,18.53
2019-01-16T21:54:39.874Z,29.93
2019-01-16T21:57:26.932Z,21.50
2019-01-16T22:00:13.796Z,20.20
2019-01-16T22:03:01.116Z,22.30
2019-01-16T22:05:52.461Z,16.20
2019-01-16T22:08:52.913Z,20.17
2019-01-16T22:11:41.518Z,17.50
2019-01-16T22:14:22.388Z,18.53
2019-01-16T22:17:23.061Z,21.97
2019-01-16T22:20:17.637Z,18.30
2019-01-16T22:22:58.813Z,17.47
2019-01-16T22:25:47.668Z,18.60
2019-01-16T22:28:26.652Z,18.63
2019-01-16T22:31:13.967Z,14.60
2019-01-16T22:34:11.607Z,17.33
2019-01-16T22:37:02.829Z,24.73
2019-01-16T22:40:03.231Z,19.00
2019-01-16T22:42:50.548Z,18.80
2019-01-16T22:45:41.786Z,20.27
2019-01-16T22:48:29.176Z,23.30
2019-01-16T22:51:33.139Z,23.87
2019-01-16T22:54:20.585Z,19.77
2019-01-16T22:56:57.374Z,24.53
2019-01-16T23:00:01.307Z,22.90
2019-01-16T23:02:53.406Z,22.60
2019-01-16T23:05:50.660Z,22.97
2019-01-16T23:08:26.814Z,25.10
2019-01-16T23:11:22.312Z,25.20
2019-01-16T23:14:13.743Z,23.63
2019-01-16T23:17:01.561Z,24.80
2019-01-16T23:19:53.126Z,23.83
2019-01-16T23:22:44.640Z,27.90
2019-01-16T23:25:35.816Z,25.33
2019-01-16T23:28:24.692Z,29.20
2019-01-16T23:31:13.136Z,33.57
2019-01-16T23:34:05.313Z,28.00
2019-01-16T23:37:09.146Z,28.80
2019-01-16T23:39:56.355Z,27.17
2019-01-16T23:42:43.343Z,30.13
2019-01-16T23:45:30.667Z,28.90
2019-01-16T23:48:16.296Z,28.70
2019-01-16T23:51:03.459Z,31.03
2019-01-16T23:53:56.141Z,34.77
2019-01-16T23:56:40.263Z,31.67
2019-01-16T23:59:27.555Z,26.40
